サンフランシスコ の空港の天気 - METARとTAF

サンフランシスコ国際空港 ( KSFO / SFO ) - アメリカ カリフォルニア州サンマテオ郡
飛行場実況気象(Metar)
観測時間11/22 04:56 PST (11/22 12:56 UTC)
風向・風速南 3m/s
視程10km以上
天気現象
少しの雲 雲底高度 6100m
気温12.8℃
湿度89%
気圧1019.8hPa
METARKSFO 221256Z 18005KT 10SM FEW200 13/11 A3012 RMK AO2 SLP198 T01280111
過去の天気等 Google飛行場航空写真 Wunderground天気予報

過去48時間のMETAR

飛行場予報(TAF)
発表時間: 11/22 03:21 PST (11/22 11:21 UTC)
予報対象時間: 22日4時 PST ~ 23日10時 PST
風向・風速不定 2m/s
視程10km以上
少しの雲 雲底高度 6,100m
22日10時 PST から
風向・風速北北西 2m/s
視程10km以上
全天の8割程度の雲 雲底高度 7,620m
22日15時 PST から
風向・風速西北西 4m/s
視程10km以上
全天の8割程度の雲 雲底高度 6,100m
22日22時 PST から
風向・風速西北西 3m/s
視程10km以上
全天を覆う雲 雲底高度 6,100m
23日0時 PST から
風向・風速西 4m/s
視程10km以上
全天を覆う雲 雲底高度 6,100m
23日7時 PST から
風向・風速西北西 3m/s
視程10km以上
全天の4割程度の雲 雲底高度 1,220m
全天の8割程度の雲 雲底高度 6,100m
KSFO 221121Z 2212/2318 VRB04KT P6SM FEW200
FM221800 34004KT P6SM BKN250
FM222300 30007KT P6SM BKN200
FM230600 29005KT P6SM OVC200
FM230800 27008KT P6SM OVC200
FM231500 30006KT P6SM SCT040 BKN200